Time;durP1;ratioP1;P1;durP2;ratioP2;P2;SDS_P1;SDS_P2;PMS_P1;PMS_P2;Temp;Humidity;BMP_temperature;BMP_pressure;BME280_temperature;BME280_humidity;BME280_pressure;Samples;Min_cycle;Max_cycle;Signal;HPM_P1;HPM_P2
2024/02/18 00:01:37;;;;;;;5.20;3.40;;;;;;;6.88;100.00;101996.57;184470;1235;44008;-65
2024/02/18 00:05:41;;;;;;;8.20;4.30;;;;;;;6.83;100.00;101994.98;184664;1235;45013;-64
2024/02/18 00:09:44;;;;;;;10.70;4.20;;;;;;;6.76;100.00;101997.91;184920;1235;44681;-64
2024/02/18 00:13:48;;;;;;;6.40;4.30;;;;;;;6.70;100.00;101994.05;184972;1235;58516;-64
2024/02/18 00:17:49;;;;;;;5.60;3.60;;;;;;;6.74;100.00;101999.21;185005;1235;44609;-64
2024/02/18 00:21:51;;;;;;;11.30;4.00;;;;;;;6.80;100.00;102008.87;185060;1235;45863;-64
2024/02/18 00:25:54;;;;;;;8.00;3.80;;;;;;;6.94;100.00;102017.14;184956;1235;43508;-64
2024/02/18 00:29:57;;;;;;;10.90;4.50;;;;;;;6.99;100.00;102017.81;184952;1235;44761;-64
2024/02/18 00:33:58;;;;;;;22.10;4.80;;;;;;;7.00;100.00;102017.97;184874;1235;59266;-64
2024/02/18 00:38:01;;;;;;;8.60;4.60;;;;;;;6.98;100.00;102014.33;184941;1234;45926;-64
2024/02/18 00:42:30;;;;;;;10.10;4.40;;;;;;;6.96;100.00;102022.00;184810;1234;45969;-64
2024/02/18 00:46:32;;;;;;;7.40;3.80;;;;;;;6.92;100.00;102023.02;184979;1235;44812;-64
2024/02/18 00:50:49;;;;;;;8.30;4.50;;;;;;;6.86;100.00;102023.45;184790;1235;43636;-64
2024/02/18 00:54:51;;;;;;;6.20;3.80;;;;;;;6.87;100.00;102018.80;184771;1234;58310;-64
2024/02/18 00:58:54;;;;;;;18.90;5.10;;;;;;;6.89;100.00;102020.70;184999;1234;43868;-62
2024/02/18 01:02:57;;;;;;;20.00;5.20;;;;;;;6.81;100.00;102022.02;184912;1238;44615;-66
2024/02/18 01:06:59;;;;;;;7.10;3.70;;;;;;;6.81;100.00;102020.79;184864;1235;46084;-64
2024/02/18 01:11:01;;;;;;;7.70;3.30;;;;;;;6.86;100.00;102019.02;185031;1234;44867;-64
2024/02/18 01:15:06;;;;;;;8.90;3.40;;;;;;;6.91;100.00;102019.91;184947;1235;58651;-64
2024/02/18 01:19:08;;;;;;;6.90;3.70;;;;;;;6.93;100.00;102020.90;184970;1234;45965;-64
2024/02/18 01:23:11;;;;;;;5.30;3.60;;;;;;;6.98;100.00;102022.98;184990;1235;46029;-63
2024/02/18 01:27:14;;;;;;;8.50;3.40;;;;;;;7.03;100.00;102022.42;184768;1235;43725;-64
2024/02/18 01:31:16;;;;;;;10.20;4.00;;;;;;;7.07;100.00;102012.23;184852;1235;43962;-63
2024/02/18 01:35:18;;;;;;;5.90;3.00;;;;;;;7.09;100.00;102010.20;184882;1234;58121;-63
2024/02/18 01:39:21;;;;;;;4.50;3.90;;;;;;;7.14;100.00;102011.27;184945;1234;44743;-64
2024/02/18 01:43:40;;;;;;;11.30;3.40;;;;;;;7.10;100.00;102009.96;184723;1236;45913;-64
2024/02/18 01:47:43;;;;;;;10.10;5.10;;;;;;;7.07;100.00;102008.70;184904;1236;46002;-64
2024/02/18 01:51:50;;;;;;;8.30;4.60;;;;;;;7.15;100.00;102007.16;184885;1235;45999;-64
2024/02/18 01:55:52;;;;;;;11.70;4.50;;;;;;;7.21;100.00;102013.25;184925;1235;58313;-64
2024/02/18 02:00:00;;;;;;;8.30;4.50;;;;;;;7.25;100.00;102012.56;185053;1235;46063;-64
2024/02/18 02:04:02;;;;;;;5.20;3.30;;;;;;;7.17;100.00;102011.15;184980;1235;44610;-64
2024/02/18 02:08:06;;;;;;;7.80;3.90;;;;;;;7.10;100.00;102003.80;185120;1236;44816;-64
2024/02/18 02:12:09;;;;;;;10.70;4.40;;;;;;;7.03;100.00;102003.05;184870;1235;43546;-64
2024/02/18 02:16:17;;;;;;;9.50;4.30;;;;;;;7.03;100.00;101993.15;185081;1235;58514;-64
2024/02/18 02:20:19;;;;;;;6.40;4.10;;;;;;;7.04;100.00;101998.04;185138;1235;43601;-64
2024/02/18 02:24:21;;;;;;;9.50;4.30;;;;;;;7.07;100.00;101997.60;184971;1235;44066;-64
2024/02/18 02:28:32;;;;;;;10.40;4.40;;;;;;;7.14;100.00;102000.29;185069;1235;46140;-64
2024/02/18 02:32:35;;;;;;;9.60;5.20;;;;;;;7.18;100.00;101997.13;184975;1235;43490;-64
2024/02/18 02:36:38;;;;;;;11.70;5.30;;;;;;;7.20;100.00;101996.71;184808;1235;59111;-64
2024/02/18 02:40:41;;;;;;;11.20;5.70;;;;;;;7.22;100.00;101988.17;184657;1235;180321;-64
2024/02/18 02:44:44;;;;;;;5.20;4.10;;;;;;;7.31;100.00;101994.71;184927;1234;45948;-64
2024/02/18 02:48:50;;;;;;;10.70;5.30;;;;;;;7.38;100.00;102000.04;185031;1238;46110;-64
2024/02/18 02:52:52;;;;;;;19.70;5.40;;;;;;;7.50;100.00;102005.91;185118;1235;43499;-66
2024/02/18 02:56:53;;;;;;;11.40;5.10;;;;;;;7.59;100.00;102016.52;185047;1235;58826;-65
2024/02/18 03:00:55;;;;;;;10.40;5.40;;;;;;;7.67;100.00;102020.77;184983;1235;45884;-64
2024/02/18 03:04:57;;;;;;;5.60;4.00;;;;;;;7.71;100.00;102016.72;185004;1234;44475;-64
2024/02/18 03:08:59;;;;;;;10.20;4.80;;;;;;;7.67;100.00;102016.18;184977;1235;43575;-64
2024/02/18 03:13:01;;;;;;;10.30;5.60;;;;;;;7.65;100.00;102010.07;184980;1235;45941;-64
2024/02/18 03:17:03;;;;;;;7.80;5.70;;;;;;;7.55;100.00;102014.55;185112;1235;60707;-64
2024/02/18 03:21:05;;;;;;;6.00;4.00;;;;;;;7.48;100.00;102016.05;184879;1237;46207;-63
2024/02/18 03:25:07;;;;;;;12.40;5.30;;;;;;;7.43;100.00;102016.80;185081;1235;43725;-64
2024/02/18 03:29:10;;;;;;;7.70;4.30;;;;;;;7.35;100.00;102018.39;184960;1235;46028;-64
2024/02/18 03:33:13;;;;;;;9.30;5.00;;;;;;;7.32;100.00;102022.01;185005;1235;44909;-64
2024/02/18 03:37:50;;;;;;;8.50;5.90;;;;;;;7.41;100.00;102027.64;184985;1236;58961;-64
2024/02/18 03:41:52;;;;;;;;;;;;;;;7.55;100.00;102026.91;185033;1235;45920;-64
2024/02/18 03:45:53;;;;;;;7.00;5.10;;;;;;;7.56;100.00;102022.45;184923;1234;44565;-64
2024/02/18 03:49:55;;;;;;;5.60;4.10;;;;;;;7.53;100.00;102028.74;184836;1235;46134;-64
2024/02/18 03:53:57;;;;;;;6.60;4.90;;;;;;;7.51;100.00;102024.08;184972;1235;45907;-64
2024/02/18 03:57:58;;;;;;;9.50;4.60;;;;;;;7.48;100.00;102026.49;184760;1235;58445;-64
2024/02/18 04:02:00;;;;;;;7.80;5.00;;;;;;;7.48;100.00;102032.32;185039;1235;45920;-64
2024/02/18 04:06:05;;;;;;;5.60;3.90;;;;;;;7.52;100.00;102033.01;184894;1236;44835;-64
2024/02/18 04:10:09;;;;;;;10.80;4.30;;;;;;;7.56;100.00;102032.16;185055;1235;45082;-64
2024/02/18 04:14:37;;;;;;;9.40;4.90;;;;;;;7.63;100.00;102026.40;185089;1235;45986;-64
2024/02/18 04:18:40;;;;;;;11.60;5.60;;;;;;;7.67;100.00;102019.71;184934;1236;58790;-63
2024/02/18 04:22:49;;;;;;;6.20;3.80;;;;;;;7.64;100.00;102022.31;185101;1235;43565;-64
2024/02/18 04:26:50;;;;;;;6.00;4.60;;;;;;;7.65;100.00;102021.02;185045;1236;44981;-64
2024/02/18 04:30:52;;;;;;;8.90;5.30;;;;;;;7.66;99.87;102014.27;185057;1235;43722;-64
2024/02/18 04:34:54;;;;;;;4.90;4.50;;;;;;;7.65;98.30;102017.14;184885;1236;44698;-64
2024/02/18 04:38:55;;;;;;;9.50;4.30;;;;;;;7.66;98.05;102014.98;185039;1235;58402;-64
2024/02/18 04:42:56;;;;;;;13.60;4.80;;;;;;;7.63;94.93;102009.10;185030;1235;43452;-64
2024/02/18 04:47:02;;;;;;;11.10;5.40;;;;;;;7.59;92.02;102008.55;185010;1235;43605;-63
2024/02/18 04:51:11;;;;;;;11.50;5.80;;;;;;;7.57;91.55;102009.50;185004;1235;44931;-64
2024/02/18 04:55:14;;;;;;;18.50;7.20;;;;;;;7.58;91.99;102005.42;185077;1235;44091;-64
2024/02/18 04:59:16;;;;;;;6.70;5.60;;;;;;;7.57;91.72;102008.82;185056;1236;58361;-64
2024/02/18 05:03:22;;;;;;;6.30;4.20;;;;;;;7.51;92.12;102007.85;185070;1235;45932;-64
2024/02/18 05:07:25;;;;;;;18.30;3.80;;;;;;;7.47;92.58;102003.75;185057;1234;43752;-64
2024/02/18 05:11:26;;;;;;;6.70;3.40;;;;;;;7.45;93.28;101992.71;185078;1236;46265;-64
2024/02/18 05:15:29;;;;;;;4.60;2.90;;;;;;;7.40;93.74;101995.55;184933;1235;45991;-63
2024/02/18 05:19:31;;;;;;;4.70;3.00;;;;;;;7.36;92.84;101999.97;184956;1235;58383;-64
2024/02/18 05:23:35;;;;;;;5.50;3.40;;;;;;;7.31;92.54;102008.27;185051;1238;45954;-64
2024/02/18 05:28:33;;;;;;;5.70;2.90;;;;;;;7.27;93.80;102015.83;184792;1237;44945;-64
2024/02/18 05:32:35;;;;;;;;;;;;;;;7.13;95.32;102013.74;185032;1235;43871;-64
2024/02/18 05:36:39;;;;;;;7.50;4.10;;;;;;;7.05;97.93;102013.89;185018;1235;45762;-64
2024/02/18 05:40:41;;;;;;;7.90;4.00;;;;;;;6.95;99.46;102015.15;184935;1235;59109;-64
2024/02/18 05:44:43;;;;;;;8.20;3.90;;;;;;;6.86;100.00;102016.75;184953;1236;46744;-64
2024/02/18 05:48:45;;;;;;;7.50;4.00;;;;;;;6.77;99.52;102020.61;185054;1235;45832;-64
2024/02/18 05:52:47;;;;;;;5.70;3.00;;;;;;;6.71;99.71;102019.95;184990;1235;45933;-64
2024/02/18 05:56:49;;;;;;;10.10;3.20;;;;;;;6.69;99.94;102017.20;185013;1235;44940;-64
2024/02/18 06:00:51;;;;;;;4.90;2.50;;;;;;;6.66;99.93;102019.76;184845;1235;60177;-63
2024/02/18 06:04:52;;;;;;;9.30;4.60;;;;;;;6.60;100.00;102017.36;184869;1235;44942;-63
2024/02/18 06:08:55;;;;;;;8.50;4.10;;;;;;;6.59;100.00;102022.84;184934;1235;43762;-64
2024/02/18 06:12:57;;;;;;;5.30;3.50;;;;;;;6.59;100.00;102025.85;184796;1238;45986;-63
2024/02/18 06:17:00;;;;;;;4.90;4.50;;;;;;;6.56;100.00;102024.55;184988;1235;45999;-64
2024/02/18 06:21:02;;;;;;;4.00;2.80;;;;;;;6.55;100.00;102031.09;184910;1235;59098;-64
2024/02/18 06:25:07;;;;;;;3.90;2.80;;;;;;;6.55;100.00;102034.65;184950;1238;46035;-64
2024/02/18 06:29:09;;;;;;;5.20;3.30;;;;;;;6.53;100.00;102037.71;185024;1234;44661;-63
2024/02/18 06:33:11;;;;;;;10.50;5.70;;;;;;;6.53;100.00;102036.65;185021;1235;44677;-64
2024/02/18 06:37:15;;;;;;;9.70;7.00;;;;;;;6.55;100.00;102024.59;185187;1234;43496;-64
2024/02/18 06:41:17;;;;;;;8.00;4.50;;;;;;;6.54;100.00;102021.82;184969;1235;58502;-64
2024/02/18 06:45:18;;;;;;;11.30;5.80;;;;;;;6.56;100.00;102021.20;185013;1235;45972;-64
2024/02/18 06:49:20;;;;;;;6.50;5.50;;;;;;;6.59;100.00;102022.68;185065;1234;46015;-64
2024/02/18 06:54:16;;;;;;;8.10;4.60;;;;;;;6.60;100.00;102028.31;185047;1235;44681;-63
2024/02/18 06:58:19;;;;;;;4.60;3.90;;;;;;;6.60;100.00;102042.38;184989;1235;43550;-64
2024/02/18 07:02:21;;;;;;;7.20;3.70;;;;;;;6.54;100.00;102035.93;184906;1236;59379;-64
2024/02/18 07:06:23;;;;;;;5.50;3.40;;;;;;;6.44;98.65;102033.47;184908;1235;46170;-63
2024/02/18 07:10:37;;;;;;;3.70;2.60;;;;;;;6.30;95.89;102038.52;185039;1235;45948;-64
2024/02/18 07:14:39;;;;;;;4.70;2.60;;;;;;;6.19;96.28;102040.51;185044;1236;43663;-64
2024/02/18 07:18:40;;;;;;;3.20;2.60;;;;;;;6.22;97.90;102043.59;185042;1235;44536;-64
2024/02/18 07:22:45;;;;;;;4.60;3.20;;;;;;;6.27;97.43;102047.09;184899;1236;58314;-63
2024/02/18 07:26:47;;;;;;;5.70;3.80;;;;;;;6.29;96.76;102043.33;185015;1234;46012;-64
2024/02/18 07:30:48;;;;;;;3.50;2.70;;;;;;;6.33;96.45;102037.20;185094;1235;46041;-63
2024/02/18 07:34:50;;;;;;;8.70;4.00;;;;;;;6.39;97.51;102032.23;185013;1235;45919;-64
2024/02/18 07:38:52;;;;;;;5.90;2.90;;;;;;;6.43;98.76;102030.84;184913;1236;45996;-63
2024/02/18 07:42:54;;;;;;;3.40;2.70;;;;;;;6.41;98.72;102031.44;184893;1234;59298;-63
2024/02/18 07:46:57;;;;;;;4.70;3.00;;;;;;;6.43;99.86;102037.90;184901;1235;43574;-63
2024/02/18 07:50:58;;;;;;;8.20;3.70;;;;;;;6.49;100.00;102033.64;184976;1235;43894;-64
2024/02/18 07:55:06;;;;;;;9.70;4.50;;;;;;;6.53;100.00;102032.77;185056;1235;45957;-64
2024/02/18 07:59:08;;;;;;;4.80;3.50;;;;;;;6.59;100.00;102023.24;184997;1235;43766;-64
2024/02/18 08:03:09;;;;;;;4.20;3.50;;;;;;;6.67;100.00;102027.51;184992;1235;58794;-63
2024/02/18 08:07:23;;;;;;;6.10;3.40;;;;;;;6.81;100.00;102026.83;184888;1235;46098;-64
2024/02/18 08:11:25;;;;;;;6.40;2.50;;;;;;;6.93;98.84;102027.75;184899;1234;45977;-64
2024/02/18 08:15:29;;;;;;;4.70;2.60;;;;;;;6.99;96.55;102028.23;185018;1235;43756;-63
2024/02/18 08:19:31;;;;;;;4.70;2.80;;;;;;;7.07;95.66;102029.35;184979;1238;43607;-63
2024/02/18 08:23:33;;;;;;;5.50;3.60;;;;;;;7.07;94.17;102024.23;184937;1235;59240;-63
2024/02/18 08:27:36;;;;;;;6.50;2.90;;;;;;;7.09;94.41;102020.27;184973;1238;45967;-63
2024/02/18 08:31:38;;;;;;;4.40;3.70;;;;;;;7.15;94.28;102016.66;184996;1237;45889;-63
2024/02/18 08:35:43;;;;;;;5.70;3.00;;;;;;;7.26;94.74;102007.96;184955;1236;43851;-63
2024/02/18 08:39:44;;;;;;;63.80;45.80;;;;;;;7.38;93.48;102002.54;185026;1235;45798;-63
2024/02/18 08:43:52;;;;;;;14.20;10.40;;;;;;;7.51;92.67;101995.11;184923;1235;59238;-63
2024/02/18 08:47:59;;;;;;;21.50;19.20;;;;;;;7.59;91.12;101993.73;184974;1237;43862;-63
2024/02/18 08:52:03;;;;;;;12.80;10.40;;;;;;;7.68;91.06;102003.98;185028;1236;45076;-62
2024/02/18 08:56:10;;;;;;;13.60;12.00;;;;;;;7.64;90.89;102006.05;185094;1238;46009;-62
2024/02/18 09:00:12;;;;;;;;;;;;;;;7.68;91.55;102008.89;185133;1236;45894;-62
2024/02/18 09:31:14;;;;;;;5.40;4.30;;;;;;;8.28;86.31;101973.81;185375;1234;60862;-63
2024/02/18 09:35:17;;;;;;;5.00;4.30;;;;;;;8.24;84.91;101968.52;185228;1233;46080;-62
2024/02/18 09:39:20;;;;;;;6.20;3.90;;;;;;;8.26;82.47;101964.34;185205;1234;44820;-62
2024/02/18 09:43:26;;;;;;;6.60;4.40;;;;;;;8.19;83.02;101960.77;185145;1235;45969;-61
2024/02/18 09:47:29;;;;;;;;;;;;;;;8.13;83.49;101955.38;185207;1234;45983;-61
2024/02/18 09:51:37;;;;;;;9.60;6.20;;;;;;;8.13;79.49;101951.66;185354;1233;57923;-63
2024/02/18 09:55:43;;;;;;;16.30;8.60;;;;;;;8.26;79.98;101953.59;185348;1234;44771;-62
2024/02/18 09:59:53;;;;;;;10.50;6.50;;;;;;;8.31;80.49;101950.69;185319;1234;45143;-62
2024/02/18 10:03:54;;;;;;;9.00;5.90;;;;;;;8.48;80.83;101951.88;185338;1235;46056;-61
2024/02/18 10:08:04;;;;;;;6.00;4.40;;;;;;;8.51;76.66;101942.37;185395;1237;43687;-62
2024/02/18 10:12:07;;;;;;;10.80;8.00;;;;;;;8.46;77.56;101934.11;185444;1235;58407;-63
2024/02/18 10:16:11;;;;;;;14.80;7.30;;;;;;;8.59;77.98;101928.77;185344;1235;45057;-63
2024/02/18 10:20:14;;;;;;;9.80;7.80;;;;;;;8.85;79.50;101919.59;185388;1235;45195;-63
2024/02/18 10:24:24;;;;;;;12.60;9.10;;;;;;;8.98;77.04;101910.27;185432;1234;45984;-63
2024/02/18 10:28:31;;;;;;;10.40;9.10;;;;;;;8.87;76.55;101902.65;185155;1233;45902;-63
2024/02/18 10:32:39;;;;;;;10.90;8.80;;;;;;;8.90;75.90;101897.19;185264;1233;59211;-64
2024/02/18 10:36:46;;;;;;;22.60;15.00;;;;;;;8.93;76.16;101892.63;185323;1234;45774;-63
2024/02/18 10:40:57;;;;;;;20.00;14.60;;;;;;;8.95;77.52;101889.02;185175;1236;46017;-63
2024/02/18 10:50:04;;;;;;;22.10;13.70;;;;;;;9.11;75.05;101868.94;185342;1234;44513;-63
2024/02/18 11:03:48;;;;;;;13.30;9.40;;;;;;;9.47;76.70;101847.46;185013;1235;44637;-63
2024/02/18 11:07:51;;;;;;;23.90;14.40;;;;;;;9.66;74.11;101841.68;184937;1234;46089;-63
2024/02/18 11:12:14;;;;;;;12.60;8.80;;;;;;;9.77;73.02;101833.30;184991;1236;44521;-64
2024/02/18 11:16:19;;;;;;;11.30;8.80;;;;;;;9.66;72.88;101826.29;184900;1235;58246;-65
2024/02/18 11:20:23;;;;;;;14.70;9.60;;;;;;;9.46;76.80;101821.30;185114;1234;44939;-63
2024/02/18 11:24:25;;;;;;;19.50;12.20;;;;;;;9.32;76.11;101819.20;184893;1238;44717;-63
2024/02/18 11:28:31;;;;;;;15.70;10.10;;;;;;;9.42;76.67;101815.69;185057;1235;43563;-64
2024/02/18 11:32:34;;;;;;;12.70;8.80;;;;;;;9.46;75.53;101810.47;184935;1235;43796;-64
2024/02/18 11:36:36;;;;;;;16.10;9.60;;;;;;;9.55;75.80;101793.02;184957;1234;59071;-64
2024/02/18 11:40:48;;;;;;;12.50;8.50;;;;;;;9.63;76.22;101783.20;184984;1234;46038;-64
2024/02/18 11:44:58;;;;;;;14.50;8.30;;;;;;;9.68;75.41;101781.19;185086;1236;45891;-64
2024/02/18 11:49:02;;;;;;;20.70;8.40;;;;;;;9.68;72.88;101772.13;185007;1235;44630;-63
2024/02/18 11:53:06;;;;;;;12.50;8.90;;;;;;;9.73;72.65;101775.23;185043;1234;43800;-63
2024/02/18 11:57:08;;;;;;;12.40;8.80;;;;;;;9.81;73.89;101773.02;184937;1234;59332;-63
2024/02/18 12:01:43;;;;;;;15.70;10.00;;;;;;;9.81;72.36;101771.93;184950;1235;45906;-62
2024/02/18 12:05:45;;;;;;;11.30;9.40;;;;;;;9.76;73.29;101759.81;184924;1238;45940;-63
2024/02/18 12:10:06;;;;;;;11.70;8.50;;;;;;;9.69;74.42;101753.33;185039;1234;46195;-62
2024/02/18 12:14:09;;;;;;;12.90;9.80;;;;;;;9.75;74.88;101752.84;185073;1235;45951;-62
2024/02/18 12:18:12;;;;;;;8.70;7.60;;;;;;;9.76;74.48;101744.41;184984;1234;59319;-63
2024/02/18 12:22:26;;;;;;;9.70;6.30;;;;;;;9.69;73.61;101733.62;184944;1235;43766;-63
2024/02/18 12:26:28;;;;;;;26.30;10.30;;;;;;;9.43;77.13;101723.55;185051;1234;44653;-63
2024/02/18 12:30:30;;;;;;;14.70;9.40;;;;;;;9.40;78.23;101716.27;185085;1235;44784;-63
2024/02/18 12:34:35;;;;;;;13.00;9.90;;;;;;;9.38;77.98;101696.71;184932;1234;43701;-63
2024/02/18 12:38:37;;;;;;;13.00;8.80;;;;;;;9.29;78.71;101692.59;185024;1238;58097;-62
2024/02/18 12:42:46;;;;;;;43.50;24.60;;;;;;;9.14;80.15;101686.16;185019;1237;45954;-62
2024/02/18 12:47:10;;;;;;;14.60;11.00;;;;;;;9.29;79.81;101686.23;185076;1234;45177;-62
2024/02/18 12:51:15;;;;;;;10.40;8.40;;;;;;;9.45;79.38;101676.33;184995;1235;43760;-62
2024/02/18 12:55:25;;;;;;;12.10;8.10;;;;;;;9.54;78.83;101669.46;185052;1234;45890;-63
2024/02/18 12:59:29;;;;;;;11.30;8.30;;;;;;;9.54;78.40;101665.92;185125;1236;57418;-62
2024/02/18 13:04:02;;;;;;;10.90;7.30;;;;;;;9.53;77.65;101652.13;185058;1235;43780;-63
2024/02/18 13:08:08;;;;;;;10.10;7.40;;;;;;;9.48;78.95;101644.48;185093;1234;44993;-63
2024/02/18 13:12:11;;;;;;;;;;;;;;;9.42;79.05;101638.41;185232;1235;43934;-62
2024/02/18 13:16:13;;;;;;;9.00;7.60;;;;;;;9.38;77.68;101628.89;185044;1236;43619;-63
2024/02/18 13:20:15;;;;;;;10.20;7.40;;;;;;;9.40;77.77;101622.44;185044;1235;58207;-62
2024/02/18 13:24:32;;;;;;;13.40;9.90;;;;;;;9.44;80.16;101619.02;185106;1235;44515;-63
2024/02/18 13:28:35;;;;;;;13.80;9.30;;;;;;;9.47;79.18;101614.98;184937;1235;43666;-63
2024/02/18 13:32:37;;;;;;;13.20;8.90;;;;;;;9.44;78.91;101604.33;185069;1234;45903;-63
2024/02/18 13:36:39;;;;;;;12.30;8.70;;;;;;;9.39;78.37;101596.78;185044;1234;43753;-63
2024/02/18 13:40:44;;;;;;;10.20;9.00;;;;;;;9.37;79.89;101597.80;185114;1235;57960;-62
2024/02/18 13:44:46;;;;;;;11.70;9.60;;;;;;;9.30;79.05;101592.88;185031;1235;45986;-63
2024/02/18 13:48:49;;;;;;;15.40;10.30;;;;;;;9.22;80.80;101578.77;185666;1233;45975;-63
2024/02/18 13:53:45;;;;;;;12.00;8.50;;;;;;;9.24;80.36;101572.51;185323;1233;45851;-63
2024/02/18 13:57:47;;;;;;;14.70;9.60;;;;;;;9.37;79.92;101569.83;185359;1233;45541;-63
2024/02/18 14:01:49;;;;;;;11.90;9.00;;;;;;;9.48;79.07;101560.38;185306;1234;58342;-62
2024/02/18 14:05:52;;;;;;;10.80;8.10;;;;;;;9.46;79.73;101550.72;185158;1233;44593;-62
2024/02/18 14:10:03;;;;;;;10.40;8.00;;;;;;;9.53;78.93;101534.23;185398;1234;45190;-63
2024/02/18 14:14:06;;;;;;;16.10;8.90;;;;;;;9.50;79.36;101532.09;185467;1233;43750;-62
2024/02/18 14:18:08;;;;;;;8.20;6.30;;;;;;;9.49;78.62;101534.45;185385;1233;44304;-62
2024/02/18 14:22:10;;;;;;;9.90;9.00;;;;;;;9.42;79.07;101527.23;185356;1236;60203;-62
2024/02/18 14:26:12;;;;;;;11.00;8.40;;;;;;;9.32;79.55;101528.14;185360;1235;45869;-62
2024/02/18 14:30:14;;;;;;;9.90;7.80;;;;;;;9.20;81.58;101526.70;185117;1234;45978;-62
2024/02/18 14:39:23;;;;;;;12.00;8.00;;;;;;;8.95;84.53;101518.33;181802;1234;5004613;-63
2024/02/18 14:43:27;;;;;;;24.80;8.90;;;;;;;8.88;85.45;101514.63;185390;1234;58621;-62
2024/02/18 14:47:30;;;;;;;17.10;8.60;;;;;;;8.96;85.03;101509.41;185072;1233;45816;-62
2024/02/18 14:51:33;;;;;;;26.90;11.70;;;;;;;8.97;84.49;101504.63;185345;1234;45018;-62
2024/02/18 14:55:38;;;;;;;52.40;26.90;;;;;;;8.95;85.74;101494.95;185203;1233;43658;-62
2024/02/18 14:59:43;;;;;;;77.40;44.60;;;;;;;9.02;86.11;101494.41;185114;1234;45934;-62
2024/02/18 15:03:45;;;;;;;165.70;88.60;;;;;;;9.01;83.74;101492.02;185141;1233;58357;-63
2024/02/18 15:07:46;;;;;;;36.80;21.10;;;;;;;8.89;85.64;101485.92;185094;1234;45877;-62
2024/02/18 15:11:52;;;;;;;28.10;15.60;;;;;;;8.86;86.77;101483.80;185271;1233;44783;-62
2024/02/18 15:15:57;;;;;;;37.70;20.90;;;;;;;8.65;88.71;101481.92;185324;1233;43654;-62
2024/02/18 15:20:01;;;;;;;36.40;20.40;;;;;;;8.69;89.81;101475.52;185216;1234;43621;-63
2024/02/18 15:24:04;;;;;;;20.10;14.60;;;;;;;8.64;89.83;101466.59;185259;1233;57866;-63
2024/02/18 15:28:08;;;;;;;29.90;20.70;;;;;;;8.65;90.08;101468.49;185273;1235;44903;-62
2024/02/18 15:32:12;;;;;;;37.00;32.00;;;;;;;8.67;90.31;101464.30;185120;1234;45998;-62
2024/02/18 15:36:14;;;;;;;43.10;26.10;;;;;;;8.70;90.87;101457.61;185282;1233;46017;-63
2024/02/18 15:40:20;;;;;;;34.40;14.60;;;;;;;8.71;91.16;101445.16;185232;1234;43738;-62
2024/02/18 15:44:25;;;;;;;23.30;19.00;;;;;;;8.66;90.60;101438.00;185225;1233;58443;-64
2024/02/18 15:48:27;;;;;;;16.40;14.20;;;;;;;8.64;90.98;101428.25;185193;1234;46034;-63
2024/02/18 15:52:29;;;;;;;16.10;14.50;;;;;;;8.61;92.39;101422.43;185212;1234;45905;-63
2024/02/18 15:56:30;;;;;;;16.10;14.30;;;;;;;8.55;92.94;101418.14;185155;1233;46082;-63
2024/02/18 16:00:32;;;;;;;14.30;10.30;;;;;;;8.47;93.53;101409.54;185198;1233;44539;-63
2024/02/18 16:04:34;;;;;;;13.40;11.60;;;;;;;8.29;94.43;101405.32;185176;1234;59031;-63
2024/02/18 16:08:38;;;;;;;12.30;9.80;;;;;;;8.22;95.08;101398.27;185230;1233;45995;-62
2024/02/18 16:12:41;;;;;;;13.50;8.50;;;;;;;8.12;95.77;101393.35;185172;1234;43798;-62
2024/02/18 16:16:43;;;;;;;16.40;10.80;;;;;;;8.00;96.38;101385.34;185871;1232;45255;-63
2024/02/18 16:20:46;;;;;;;13.30;10.30;;;;;;;7.91;97.11;101386.52;185235;1233;46055;-64
2024/02/18 16:24:49;;;;;;;21.00;10.70;;;;;;;7.85;97.56;101372.69;185312;1235;58770;-64
2024/02/18 16:29:05;;;;;;;15.70;10.80;;;;;;;7.79;98.00;101366.13;185208;1233;43641;-63
2024/02/18 16:33:07;;;;;;;15.90;11.90;;;;;;;7.74;99.24;101365.15;185146;1236;46174;-64
2024/02/18 16:37:09;;;;;;;18.50;12.50;;;;;;;7.70;99.68;101349.63;185352;1234;43643;-64
2024/02/18 16:41:21;;;;;;;31.40;14.60;;;;;;;7.66;99.97;101346.13;185321;1235;43480;-63
2024/02/18 16:45:23;;;;;;;20.30;12.10;;;;;;;7.59;100.00;101338.75;185239;1234;58428;-64
2024/02/18 16:49:25;;;;;;;17.40;9.50;;;;;;;7.50;100.00;101336.01;185267;1234;44044;-63
2024/02/18 16:53:57;;;;;;;17.70;10.80;;;;;;;7.41;100.00;101329.42;185360;1232;45987;-63
2024/02/18 16:57:59;;;;;;;16.50;13.90;;;;;;;7.31;100.00;101321.84;185474;1233;44977;-64
2024/02/18 17:02:29;;;;;;;25.50;15.10;;;;;;;7.19;100.00;101318.73;185641;1234;43327;-63
2024/02/18 17:06:31;;;;;;;16.20;9.90;;;;;;;7.14;100.00;101311.21;185473;1235;58444;-62
2024/02/18 17:11:02;;;;;;;16.30;11.20;;;;;;;7.03;100.00;101306.81;185312;1234;45259;-63
2024/02/18 17:15:06;;;;;;;19.90;15.30;;;;;;;6.93;100.00;101301.67;185308;1233;44595;-63
2024/02/18 17:19:10;;;;;;;29.50;17.50;;;;;;;6.90;100.00;101294.45;185240;1232;44872;-63
2024/02/18 17:23:14;;;;;;;32.70;22.80;;;;;;;6.83;100.00;101289.30;185297;1234;44911;-63
2024/02/18 17:27:16;;;;;;;38.30;26.20;;;;;;;6.86;100.00;101287.39;185367;1235;58081;-63
2024/02/18 17:31:17;;;;;;;51.30;31.80;;;;;;;6.88;100.00;101283.24;185294;1235;43528;-63
2024/02/18 17:35:20;;;;;;;54.80;27.50;;;;;;;6.93;100.00;101278.04;185332;1235;45877;-63
2024/02/18 17:39:25;;;;;;;50.50;30.60;;;;;;;6.84;100.00;101268.98;185454;1232;46034;-63
2024/02/18 17:43:27;;;;;;;41.10;22.60;;;;;;;6.73;100.00;101262.27;185394;1234;43812;-62
2024/02/18 17:47:28;;;;;;;40.00;23.30;;;;;;;6.71;100.00;101258.89;185412;1233;58393;-63
2024/02/18 17:52:22;;;;;;;34.70;21.10;;;;;;;6.61;100.00;101252.65;185398;1233;43862;-64
2024/02/18 17:56:24;;;;;;;25.70;19.80;;;;;;;6.54;100.00;101250.17;185294;1232;44502;-63
2024/02/18 18:00:28;;;;;;;29.30;19.00;;;;;;;6.57;100.00;101242.98;185431;1236;43588;-63
2024/02/18 18:04:30;;;;;;;35.60;21.40;;;;;;;6.52;100.00;101233.39;185375;1235;45201;-63
2024/02/18 18:08:31;;;;;;;44.00;27.70;;;;;;;6.52;100.00;101229.64;185254;1236;57383;-63
2024/02/18 18:12:33;;;;;;;50.10;32.50;;;;;;;6.51;100.00;101224.41;185287;1235;45856;-63
2024/02/18 18:16:35;;;;;;;63.40;39.40;;;;;;;6.51;100.00;101217.36;185400;1234;43985;-63
2024/02/18 18:21:02;;;;;;;64.00;38.90;;;;;;;6.55;100.00;101210.52;185341;1235;43730;-63
2024/02/18 18:25:06;;;;;;;34.70;23.40;;;;;;;6.60;100.00;101201.08;185314;1234;45897;-63
2024/02/18 18:29:09;;;;;;;44.90;30.20;;;;;;;6.55;100.00;101190.95;185268;1233;58301;-63
2024/02/18 18:33:30;;;;;;;54.90;29.60;;;;;;;6.52;100.00;101182.81;185374;1234;43493;-62
2024/02/18 18:37:33;;;;;;;63.70;41.80;;;;;;;6.56;100.00;101184.17;185378;1233;45262;-62
2024/02/18 18:41:38;;;;;;;36.20;23.60;;;;;;;6.62;100.00;101172.95;185427;1235;46713;-63
2024/02/18 18:45:39;;;;;;;35.80;23.30;;;;;;;6.59;100.00;101157.96;185325;1234;44294;-62
2024/02/18 18:49:41;;;;;;;35.50;21.30;;;;;;;6.53;100.00;101149.27;185300;1233;59243;-63
2024/02/18 18:53:43;;;;;;;28.90;18.30;;;;;;;6.45;100.00;101142.10;185321;1234;44822;-62
2024/02/18 18:57:52;;;;;;;24.40;16.40;;;;;;;6.49;100.00;101136.96;185419;1234;43804;-63
2024/02/18 19:01:55;;;;;;;33.40;15.00;;;;;;;6.43;100.00;101122.12;185391;1234;45863;-63
2024/02/18 19:06:02;;;;;;;26.10;16.90;;;;;;;6.46;100.00;101122.13;185328;1234;45070;-63
2024/02/18 19:10:05;;;;;;;29.30;18.10;;;;;;;6.51;100.00;101111.83;185382;1232;59070;-63
2024/02/18 19:14:10;;;;;;;27.90;16.90;;;;;;;6.54;100.00;101103.06;185260;1233;45592;-63
2024/02/18 19:18:12;;;;;;;27.00;20.00;;;;;;;6.51;100.00;101097.88;185381;1232;44607;-63
2024/02/18 19:22:17;;;;;;;38.20;23.40;;;;;;;6.54;100.00;101088.05;185436;1234;45120;-62
2024/02/18 19:26:49;;;;;;;31.90;19.70;;;;;;;6.59;100.00;101080.38;185466;1234;45827;-63
2024/02/18 19:30:51;;;;;;;29.40;20.10;;;;;;;6.53;100.00;101061.71;185313;1236;59062;-60